Aérodrome :
LOGIN :

S'inscrire | Disclaimer

   EN    FR    IT 

 










Légende :    VFR   VFR Marginal   IFR   IFR Intensif   IFR Très Intensif
Visi : 
Plafond : 
>= 8 km
>= 3000ft
5 à 8 km
1000 à 3000 ft
1500m à 5 km
500 à 1000 ft
800 à 1500m
200 à 500 ft
< 800m
< 200 ft
Symboles :   Orages  Brouillard  Fortes neiges  Fortes précipitations  Vent > 20 kt
SIGMETs :   Divers  Orages  Givrage  Turbulence  Onde Orograph.  Cendres Volcan.






- Altitude de l'aérodrome : 17 ft
- Code IATA : MPL


LFMT - Montpellier Méditerranée

DERNIER METAR :
  • 202200Z AUTO 12008KT 9999 SCT025 25/23 Q1006 TEMPO FEW110CB BKN120 BKN150

METARs EXPIRÉS :
  • 202130Z AUTO 13008KT CAVOK 25/23 Q1006 TEMPO FEW110CB BKN120 BKN150
  • 202100Z AUTO 12009KT CAVOK 25/23 Q1006 TEMPO VRB15G25KT 3000 TSRA SCT040CB BKN120
  • 202030Z AUTO 12010KT CAVOK 26/22 Q1006 TEMPO VRB15G25KT 3000 TSRA SCT040CB BKN120
  • 202000Z AUTO 12009KT CAVOK 26/22 Q1006 TEMPO VRB15G25KT 3000 TSRA SCT040CB BKN120
  • 201930Z AUTO 11010KT CAVOK 26/21 Q1006 TEMPO VRB15G25KT 3000 TSRA SCT040CB BKN120
  • 201900Z AUTO 11011KT CAVOK 26/21 Q1006 TEMPO VRB15G25KT 3000 TSRA SCT040CB BKN120
  • 201830Z AUTO 12011KT CAVOK 27/21 Q1006 TEMPO VRB15G25KT 3000 TSRA SCT040CB BKN120
  • 201800Z AUTO 13011KT 9999 FEW001 27/21 Q1006 TEMPO VRB15G25KT 3000 TSRA SCT040CB BKN120
  • 201730Z AUTO 13012KT CAVOK 28/22 Q1006 TEMPO VRB15G25KT 3000 TSRA SCT040CB BKN120

TAF AMD TAF LFMT
Valide du 20 à 21h jusqu'au 21 à 21h UTC


202140Z 2021/2121 12010KT CAVOK
BECMG 2021/2023 VRB10KT
PROB40
TEMPO 2021/2024 FEW110CB BKN120 BKN150
BECMG 2100/2102 28010KT
TEMPO 2100/2109 VRB15G25KT SCT080CB BKN100 BKN140
PROB40
TEMPO 2104/2109 4000 TSRA BKN060CB BKN080 BKN140
TEMPO 2109/2113 VRB06KT
PROB40
TEMPO 2114/2116 VRB15G25KT FEW050CB BKN080
ATIS : +33 4 67 13 11 70



MET'MAP, la Météo Aéronautique d'un coup d'oeil ! - Copyright ORBIFLY Décembre 2007 - Disclaimer

ORBIFLY MET'MAP TEAM :

Programmation & Développement : Alexandra Zaïnal
Sur une idée originale de : Baudouin d'Aumeries
Soutien technique & logistique : Manuel Goepfert
Assistance : Marc-Olivier Méhu




SOURCES & CREDITS :

   NOAA